sensor_id;sensor_type;location;lat;lon;timestamp;temperature;humidity
51837;DHT22;38941;53.254;6.600;2023-02-01T00:00:01;6.00;99.90
51837;DHT22;38941;53.254;6.600;2023-02-01T00:02:02;4.40;99.90
51837;DHT22;38941;53.254;6.600;2023-02-01T00:04:03;6.00;99.90
51837;DHT22;38941;53.254;6.600;2023-02-01T00:06:04;6.20;99.90
51837;DHT22;38941;53.254;6.600;2023-02-01T00:08:05;6.10;99.90
51837;DHT22;38941;53.254;6.600;2023-02-01T00:10:06;6.00;99.90
51837;DHT22;38941;53.254;6.600;2023-02-01T00:12:07;5.40;99.90
51837;DHT22;38941;53.254;6.600;2023-02-01T00:14:08;6.00;99.90
51837;DHT22;38941;53.254;6.600;2023-02-01T00:16:21;6.00;99.90
51837;DHT22;38941;53.254;6.600;2023-02-01T00:18:22;6.10;99.90
51837;DHT22;38941;53.254;6.600;2023-02-01T00:20:22;6.10;99.90
51837;DHT22;38941;53.254;6.600;2023-02-01T00:22:23;6.20;99.90
51837;DHT22;38941;53.254;6.600;2023-02-01T00:24:24;6.10;99.90
51837;DHT22;38941;53.254;6.600;2023-02-01T00:26:42;6.20;99.90
51837;DHT22;38941;53.254;6.600;2023-02-01T00:28:43;6.10;99.90
51837;DHT22;38941;53.254;6.600;2023-02-01T00:30:45;6.10;99.90
51837;DHT22;38941;53.254;6.600;2023-02-01T00:32:47;6.10;99.90
51837;DHT22;38941;53.254;6.600;2023-02-01T00:34:48;6.10;99.90
51837;DHT22;38941;53.254;6.600;2023-02-01T00:36:50;5.50;99.90
51837;DHT22;38941;53.254;6.600;2023-02-01T00:38:51;6.10;99.90
51837;DHT22;38941;53.254;6.600;2023-02-01T00:40:53;6.00;99.90
51837;DHT22;38941;53.254;6.600;2023-02-01T00:42:54;5.50;99.90
51837;DHT22;38941;53.254;6.600;2023-02-01T00:44:55;6.10;99.90
51837;DHT22;38941;53.254;6.600;2023-02-01T00:46:56;6.10;99.90
51837;DHT22;38941;53.254;6.600;2023-02-01T00:48:56;6.20;99.90
51837;DHT22;38941;53.254;6.600;2023-02-01T00:51:02;6.10;99.90
51837;DHT22;38941;53.254;6.600;2023-02-01T00:53:03;6.20;99.90
51837;DHT22;38941;53.254;6.600;2023-02-01T00:55:04;6.20;99.90
51837;DHT22;38941;53.254;6.600;2023-02-01T00:57:04;6.20;99.90
51837;DHT22;38941;53.254;6.600;2023-02-01T00:59:05;6.20;99.90
51837;DHT22;38941;53.254;6.600;2023-02-01T01:01:17;6.20;99.90
51837;DHT22;38941;53.254;6.600;2023-02-01T01:03:18;6.20;99.90
51837;DHT22;38941;53.254;6.600;2023-02-01T01:05:19;6.20;99.90
51837;DHT22;38941;53.254;6.600;2023-02-01T01:07:20;6.30;99.90
51837;DHT22;38941;53.254;6.600;2023-02-01T01:09:22;6.30;99.90
51837;DHT22;38941;53.254;6.600;2023-02-01T01:11:27;6.20;99.90
51837;DHT22;38941;53.254;6.600;2023-02-01T01:13:27;6.20;99.90
51837;DHT22;38941;53.254;6.600;2023-02-01T01:15:28;6.30;99.90
51837;DHT22;38941;53.254;6.600;2023-02-01T01:17:31;5.70;99.90
51837;DHT22;38941;53.254;6.600;2023-02-01T01:19:32;6.30;99.90
51837;DHT22;38941;53.254;6.600;2023-02-01T01:21:33;6.20;99.90
51837;DHT22;38941;53.254;6.600;2023-02-01T01:23:35;5.70;99.90
51837;DHT22;38941;53.254;6.600;2023-02-01T01:25:39;6.20;99.90
51837;DHT22;38941;53.254;6.600;2023-02-01T01:27:40;6.50;99.90
51837;DHT22;38941;53.254;6.600;2023-02-01T01:29:41;6.20;99.90
51837;DHT22;38941;53.254;6.600;2023-02-01T01:31:41;6.30;99.90
51837;DHT22;38941;53.254;6.600;2023-02-01T01:33:42;6.20;99.90
51837;DHT22;38941;53.254;6.600;2023-02-01T01:35:44;6.20;99.90
51837;DHT22;38941;53.254;6.600;2023-02-01T01:37:44;6.20;99.90
51837;DHT22;38941;53.254;6.600;2023-02-01T01:39:45;6.30;99.90
51837;DHT22;38941;53.254;6.600;2023-02-01T01:41:46;6.30;99.90
51837;DHT22;38941;53.254;6.600;2023-02-01T01:43:56;6.30;99.90
51837;DHT22;38941;53.254;6.600;2023-02-01T01:45:57;5.90;99.90
51837;DHT22;38941;53.254;6.600;2023-02-01T01:48:07;6.30;99.90
51837;DHT22;38941;53.254;6.600;2023-02-01T01:50:13;6.60;99.90
51837;DHT22;38941;53.254;6.600;2023-02-01T01:52:14;6.20;99.90
51837;DHT22;38941;53.254;6.600;2023-02-01T01:54:27;6.20;99.90
51837;DHT22;38941;53.254;6.600;2023-02-01T01:56:30;6.60;99.90
51837;DHT22;38941;53.254;6.600;2023-02-01T01:58:33;6.10;99.90
51837;DHT22;38941;53.254;6.600;2023-02-01T02:00:35;6.00;99.90
51837;DHT22;38941;53.254;6.600;2023-02-01T02:02:38;6.20;99.90
51837;DHT22;38941;53.254;6.600;2023-02-01T02:04:39;5.90;99.90
51837;DHT22;38941;53.254;6.600;2023-02-01T02:06:59;6.00;99.90
51837;DHT22;38941;53.254;6.600;2023-02-01T02:09:03;6.00;99.90
51837;DHT22;38941;53.254;6.600;2023-02-01T02:11:04;6.20;99.90
51837;DHT22;38941;53.254;6.600;2023-02-01T02:13:05;5.90;99.90
51837;DHT22;38941;53.254;6.600;2023-02-01T02:15:11;5.90;99.90
51837;DHT22;38941;53.254;6.600;2023-02-01T02:17:40;5.90;99.90
51837;DHT22;38941;53.254;6.600;2023-02-01T02:20:11;5.90;99.90
51837;DHT22;38941;53.254;6.600;2023-02-01T02:22:35;6.00;99.90
51837;DHT22;38941;53.254;6.600;2023-02-01T02:27:39;5.90;99.90
51837;DHT22;38941;53.254;6.600;2023-02-01T02:32:31;5.80;99.90
51837;DHT22;38941;53.254;6.600;2023-02-01T02:34:44;5.80;99.90
51837;DHT22;38941;53.254;6.600;2023-02-01T02:37:28;5.80;99.90
51837;DHT22;38941;53.254;6.600;2023-02-01T02:44:14;5.80;99.90
51837;DHT22;38941;53.254;6.600;2023-02-01T02:46:44;5.70;99.90
51837;DHT22;38941;53.254;6.600;2023-02-01T02:49:12;5.70;99.90
51837;DHT22;38941;53.254;6.600;2023-02-01T02:51:28;5.70;99.90
51837;DHT22;38941;53.254;6.600;2023-02-01T02:56:23;5.70;99.90
51837;DHT22;38941;53.254;6.600;2023-02-01T02:58:46;5.80;99.90
51837;DHT22;38941;53.254;6.600;2023-02-01T03:01:05;5.80;99.90
51837;DHT22;38941;53.254;6.600;2023-02-01T03:03:25;6.50;99.90
51837;DHT22;38941;53.254;6.600;2023-02-01T03:05:47;5.90;99.90
51837;DHT22;38941;53.254;6.600;2023-02-01T03:09:59;5.90;99.90
51837;DHT22;38941;53.254;6.600;2023-02-01T03:12:09;6.00;99.90
51837;DHT22;38941;53.254;6.600;2023-02-01T03:14:32;6.00;99.90
51837;DHT22;38941;53.254;6.600;2023-02-01T03:16:41;6.00;99.90
51837;DHT22;38941;53.254;6.600;2023-02-01T03:21:06;6.10;99.90
51837;DHT22;38941;53.254;6.600;2023-02-01T03:23:08;6.10;99.90
51837;DHT22;38941;53.254;6.600;2023-02-01T03:25:16;6.00;99.90
51837;DHT22;38941;53.254;6.600;2023-02-01T03:27:27;6.10;99.90
51837;DHT22;38941;53.254;6.600;2023-02-01T03:29:35;6.10;99.90
51837;DHT22;38941;53.254;6.600;2023-02-01T03:31:37;6.10;99.90
51837;DHT22;38941;53.254;6.600;2023-02-01T03:33:38;6.10;99.90
51837;DHT22;38941;53.254;6.600;2023-02-01T03:37:59;6.10;99.90
51837;DHT22;38941;53.254;6.600;2023-02-01T03:40:07;6.80;99.90
51837;DHT22;38941;53.254;6.600;2023-02-01T03:42:16;6.20;99.90
51837;DHT22;38941;53.254;6.600;2023-02-01T03:44:26;6.20;99.90
51837;DHT22;38941;53.254;6.600;2023-02-01T03:46:37;6.20;99.90
51837;DHT22;38941;53.254;6.600;2023-02-01T03:48:39;6.20;99.90
51837;DHT22;38941;53.254;6.600;2023-02-01T03:50:46;6.20;99.90
51837;DHT22;38941;53.254;6.600;2023-02-01T03:53:04;6.20;99.90
51837;DHT22;38941;53.254;6.600;2023-02-01T03:55:08;6.20;99.90
51837;DHT22;38941;53.254;6.600;2023-02-01T03:57:13;6.20;99.90
51837;DHT22;38941;53.254;6.600;2023-02-01T03:59:14;6.10;99.90
51837;DHT22;38941;53.254;6.600;2023-02-01T04:01:15;6.80;99.90
51837;DHT22;38941;53.254;6.600;2023-02-01T04:03:16;6.00;99.90
51837;DHT22;38941;53.254;6.600;2023-02-01T04:05:16;6.50;99.90
51837;DHT22;38941;53.254;6.600;2023-02-01T04:07:17;6.00;99.90
51837;DHT22;38941;53.254;6.600;2023-02-01T04:09:19;6.00;99.90
51837;DHT22;38941;53.254;6.600;2023-02-01T04:11:20;6.00;99.90
51837;DHT22;38941;53.254;6.600;2023-02-01T04:13:21;6.00;99.90
51837;DHT22;38941;53.254;6.600;2023-02-01T04:15:22;6.00;99.90
51837;DHT22;38941;53.254;6.600;2023-02-01T04:17:22;6.00;99.90
51837;DHT22;38941;53.254;6.600;2023-02-01T04:19:23;6.50;99.90
51837;DHT22;38941;53.254;6.600;2023-02-01T04:21:27;6.10;99.90
51837;DHT22;38941;53.254;6.600;2023-02-01T04:23:29;6.30;99.90
51837;DHT22;38941;53.254;6.600;2023-02-01T04:25:32;6.30;99.90
51837;DHT22;38941;53.254;6.600;2023-02-01T04:27:34;6.40;99.90
51837;DHT22;38941;53.254;6.600;2023-02-01T04:29:34;6.10;99.90
51837;DHT22;38941;53.254;6.600;2023-02-01T04:31:35;6.20;99.90
51837;DHT22;38941;53.254;6.600;2023-02-01T04:33:36;6.40;99.90
51837;DHT22;38941;53.254;6.600;2023-02-01T04:35:37;6.20;99.90
51837;DHT22;38941;53.254;6.600;2023-02-01T04:37:38;6.60;99.90
51837;DHT22;38941;53.254;6.600;2023-02-01T04:39:38;6.20;99.90
51837;DHT22;38941;53.254;6.600;2023-02-01T04:41:40;6.60;99.90
51837;DHT22;38941;53.254;6.600;2023-02-01T04:43:42;6.10;99.90
51837;DHT22;38941;53.254;6.600;2023-02-01T04:45:47;6.00;99.90
51837;DHT22;38941;53.254;6.600;2023-02-01T04:47:49;6.30;99.90
51837;DHT22;38941;53.254;6.600;2023-02-01T04:49:50;6.00;99.90
51837;DHT22;38941;53.254;6.600;2023-02-01T04:51:51;6.20;99.90
51837;DHT22;38941;53.254;6.600;2023-02-01T04:53:51;6.40;99.90
51837;DHT22;38941;53.254;6.600;2023-02-01T04:55:52;6.10;99.90
51837;DHT22;38941;53.254;6.600;2023-02-01T04:57:53;6.80;99.90
51837;DHT22;38941;53.254;6.600;2023-02-01T04:59:54;6.00;99.90
51837;DHT22;38941;53.254;6.600;2023-02-01T05:01:55;6.80;99.90
51837;DHT22;38941;53.254;6.600;2023-02-01T05:03:56;6.50;99.90
51837;DHT22;38941;53.254;6.600;2023-02-01T05:05:58;6.10;99.90
51837;DHT22;38941;53.254;6.600;2023-02-01T05:08:00;6.00;99.90
51837;DHT22;38941;53.254;6.600;2023-02-01T05:10:01;6.60;99.90
51837;DHT22;38941;53.254;6.600;2023-02-01T05:12:02;5.90;99.90
51837;DHT22;38941;53.254;6.600;2023-02-01T05:14:21;5.90;99.90
51837;DHT22;38941;53.254;6.600;2023-02-01T05:16:23;6.10;99.90
51837;DHT22;38941;53.254;6.600;2023-02-01T05:18:24;5.90;99.90
51837;DHT22;38941;53.254;6.600;2023-02-01T05:20:24;6.30;99.90
51837;DHT22;38941;53.254;6.600;2023-02-01T05:22:25;5.90;99.90
51837;DHT22;38941;53.254;6.600;2023-02-01T05:24:26;5.90;99.90
51837;DHT22;38941;53.254;6.600;2023-02-01T05:26:28;6.40;99.90
51837;DHT22;38941;53.254;6.600;2023-02-01T05:28:29;5.80;99.90
51837;DHT22;38941;53.254;6.600;2023-02-01T05:30:29;5.90;99.90
51837;DHT22;38941;53.254;6.600;2023-02-01T05:32:30;5.90;99.90
51837;DHT22;38941;53.254;6.600;2023-02-01T05:34:31;5.90;99.90
51837;DHT22;38941;53.254;6.600;2023-02-01T05:36:32;6.40;99.90
51837;DHT22;38941;53.254;6.600;2023-02-01T05:38:33;5.90;99.90
51837;DHT22;38941;53.254;6.600;2023-02-01T05:40:34;6.00;99.90
51837;DHT22;38941;53.254;6.600;2023-02-01T05:42:35;6.00;99.90
51837;DHT22;38941;53.254;6.600;2023-02-01T05:44:36;6.00;99.90
51837;DHT22;38941;53.254;6.600;2023-02-01T05:46:36;5.90;99.90
51837;DHT22;38941;53.254;6.600;2023-02-01T05:48:38;6.10;99.90
51837;DHT22;38941;53.254;6.600;2023-02-01T05:50:38;6.10;99.90
51837;DHT22;38941;53.254;6.600;2023-02-01T05:52:39;6.30;99.90
51837;DHT22;38941;53.254;6.600;2023-02-01T05:54:39;6.10;99.90
51837;DHT22;38941;53.254;6.600;2023-02-01T05:56:40;6.10;99.90
51837;DHT22;38941;53.254;6.600;2023-02-01T05:58:42;6.10;99.90
51837;DHT22;38941;53.254;6.600;2023-02-01T06:00:43;6.80;99.90
51837;DHT22;38941;53.254;6.600;2023-02-01T06:02:43;6.10;99.90
51837;DHT22;38941;53.254;6.600;2023-02-01T06:04:44;6.30;99.90
51837;DHT22;38941;53.254;6.600;2023-02-01T06:06:44;6.10;99.90
51837;DHT22;38941;53.254;6.600;2023-02-01T06:08:45;6.60;99.90
51837;DHT22;38941;53.254;6.600;2023-02-01T06:10:46;6.00;99.90
51837;DHT22;38941;53.254;6.600;2023-02-01T06:12:47;5.90;99.90
51837;DHT22;38941;53.254;6.600;2023-02-01T06:14:47;5.90;99.90
51837;DHT22;38941;53.254;6.600;2023-02-01T06:16:49;6.80;99.90
51837;DHT22;38941;53.254;6.600;2023-02-01T06:18:50;5.90;99.90
51837;DHT22;38941;53.254;6.600;2023-02-01T06:20:55;5.90;99.90
51837;DHT22;38941;53.254;6.600;2023-02-01T06:22:56;5.90;99.90
51837;DHT22;38941;53.254;6.600;2023-02-01T06:24:58;6.50;99.90
51837;DHT22;38941;53.254;6.600;2023-02-01T06:26:59;6.40;99.90
51837;DHT22;38941;53.254;6.600;2023-02-01T06:29:01;5.90;99.90
51837;DHT22;38941;53.254;6.600;2023-02-01T06:31:05;5.90;99.90
51837;DHT22;38941;53.254;6.600;2023-02-01T06:33:07;6.40;99.90
51837;DHT22;38941;53.254;6.600;2023-02-01T06:35:09;5.90;99.90
51837;DHT22;38941;53.254;6.600;2023-02-01T06:37:17;5.90;99.90
51837;DHT22;38941;53.254;6.600;2023-02-01T06:39:18;6.00;99.90
51837;DHT22;38941;53.254;6.600;2023-02-01T06:41:20;5.90;99.90
51837;DHT22;38941;53.254;6.600;2023-02-01T06:43:21;5.90;99.90
51837;DHT22;38941;53.254;6.600;2023-02-01T06:45:22;6.00;99.90
51837;DHT22;38941;53.254;6.600;2023-02-01T06:47:23;6.00;99.90
51837;DHT22;38941;53.254;6.600;2023-02-01T06:49:25;6.00;99.90
51837;DHT22;38941;53.254;6.600;2023-02-01T06:51:27;6.20;99.90
51837;DHT22;38941;53.254;6.600;2023-02-01T06:53:29;6.10;99.90
51837;DHT22;38941;53.254;6.600;2023-02-01T06:55:30;6.00;99.90
51837;DHT22;38941;53.254;6.600;2023-02-01T06:57:32;6.30;99.90
51837;DHT22;38941;53.254;6.600;2023-02-01T06:59:34;4.60;99.90
51837;DHT22;38941;53.254;6.600;2023-02-01T07:01:35;6.00;99.90
51837;DHT22;38941;53.254;6.600;2023-02-01T07:03:36;6.10;99.90
51837;DHT22;38941;53.254;6.600;2023-02-01T07:05:37;6.20;99.90
51837;DHT22;38941;53.254;6.600;2023-02-01T07:07:38;6.10;99.90
51837;DHT22;38941;53.254;6.600;2023-02-01T07:09:39;6.00;99.90
51837;DHT22;38941;53.254;6.600;2023-02-01T07:11:40;5.10;99.90
51837;DHT22;38941;53.254;6.600;2023-02-01T07:13:44;6.20;99.90
51837;DHT22;38941;53.254;6.600;2023-02-01T07:15:45;6.80;99.90
51837;DHT22;38941;53.254;6.600;2023-02-01T07:17:49;6.20;99.90
51837;DHT22;38941;53.254;6.600;2023-02-01T07:19:51;6.00;99.90
51837;DHT22;38941;53.254;6.600;2023-02-01T07:21:52;6.00;99.90
51837;DHT22;38941;53.254;6.600;2023-02-01T07:23:53;6.00;99.90
51837;DHT22;38941;53.254;6.600;2023-02-01T07:25:56;7.40;99.90
51837;DHT22;38941;53.254;6.600;2023-02-01T07:27:57;6.10;99.90
51837;DHT22;38941;53.254;6.600;2023-02-01T07:29:58;6.10;99.90
51837;DHT22;38941;53.254;6.600;2023-02-01T07:32:03;6.20;99.90
51837;DHT22;38941;53.254;6.600;2023-02-01T07:34:04;6.20;99.90
51837;DHT22;38941;53.254;6.600;2023-02-01T07:36:06;6.10;99.90
51837;DHT22;38941;53.254;6.600;2023-02-01T07:38:07;6.20;99.90
51837;DHT22;38941;53.254;6.600;2023-02-01T07:40:09;6.10;99.90
51837;DHT22;38941;53.254;6.600;2023-02-01T07:42:10;6.20;99.90
51837;DHT22;38941;53.254;6.600;2023-02-01T07:44:10;6.20;99.90
51837;DHT22;38941;53.254;6.600;2023-02-01T07:46:11;6.10;99.90
51837;DHT22;38941;53.254;6.600;2023-02-01T07:48:12;7.40;99.90
51837;DHT22;38941;53.254;6.600;2023-02-01T07:50:13;6.10;99.90
51837;DHT22;38941;53.254;6.600;2023-02-01T07:52:14;6.20;99.90
51837;DHT22;38941;53.254;6.600;2023-02-01T07:54:17;6.20;99.90
51837;DHT22;38941;53.254;6.600;2023-02-01T07:56:20;6.10;99.90
51837;DHT22;38941;53.254;6.600;2023-02-01T07:58:22;6.20;99.90
51837;DHT22;38941;53.254;6.600;2023-02-01T08:00:23;6.20;99.90
51837;DHT22;38941;53.254;6.600;2023-02-01T08:02:42;6.20;99.90
51837;DHT22;38941;53.254;6.600;2023-02-01T08:04:43;6.20;99.90
51837;DHT22;38941;53.254;6.600;2023-02-01T08:06:44;6.20;99.90
51837;DHT22;38941;53.254;6.600;2023-02-01T08:08:46;6.20;99.90
51837;DHT22;38941;53.254;6.600;2023-02-01T08:10:48;6.20;99.90
51837;DHT22;38941;53.254;6.600;2023-02-01T08:12:48;6.20;99.90
51837;DHT22;38941;53.254;6.600;2023-02-01T08:14:51;6.20;99.90
51837;DHT22;38941;53.254;6.600;2023-02-01T08:16:52;6.20;99.90
51837;DHT22;38941;53.254;6.600;2023-02-01T08:18:53;6.20;99.90
51837;DHT22;38941;53.254;6.600;2023-02-01T08:20:54;6.20;99.90
51837;DHT22;38941;53.254;6.600;2023-02-01T08:22:55;6.20;99.90
51837;DHT22;38941;53.254;6.600;2023-02-01T08:24:56;6.30;99.90
51837;DHT22;38941;53.254;6.600;2023-02-01T08:27:02;6.40;99.90
51837;DHT22;38941;53.254;6.600;2023-02-01T08:29:05;6.20;99.90
51837;DHT22;38941;53.254;6.600;2023-02-01T08:31:18;6.20;99.90
51837;DHT22;38941;53.254;6.600;2023-02-01T08:33:20;6.30;99.90
51837;DHT22;38941;53.254;6.600;2023-02-01T08:35:21;6.30;99.90
51837;DHT22;38941;53.254;6.600;2023-02-01T08:37:21;6.30;99.90
51837;DHT22;38941;53.254;6.600;2023-02-01T08:39:22;6.30;99.90
51837;DHT22;38941;53.254;6.600;2023-02-01T08:41:26;6.30;99.90
51837;DHT22;38941;53.254;6.600;2023-02-01T08:43:26;6.30;99.90
51837;DHT22;38941;53.254;6.600;2023-02-01T08:45:28;6.70;99.90
51837;DHT22;38941;53.254;6.600;2023-02-01T08:47:30;6.30;99.90
51837;DHT22;38941;53.254;6.600;2023-02-01T08:49:31;6.30;99.90
51837;DHT22;38941;53.254;6.600;2023-02-01T08:51:32;6.40;99.90
51837;DHT22;38941;53.254;6.600;2023-02-01T08:53:36;6.40;99.90
51837;DHT22;38941;53.254;6.600;2023-02-01T08:55:36;6.50;99.90
51837;DHT22;38941;53.254;6.600;2023-02-01T08:57:37;6.40;99.90
51837;DHT22;38941;53.254;6.600;2023-02-01T08:59:39;6.40;99.90
51837;DHT22;38941;53.254;6.600;2023-02-01T09:01:41;6.60;99.90
51837;DHT22;38941;53.254;6.600;2023-02-01T09:03:42;6.30;99.90
51837;DHT22;38941;53.254;6.600;2023-02-01T09:05:43;6.30;99.90
51837;DHT22;38941;53.254;6.600;2023-02-01T09:07:45;6.40;99.90
51837;DHT22;38941;53.254;6.600;2023-02-01T09:09:46;6.30;99.90
51837;DHT22;38941;53.254;6.600;2023-02-01T09:11:47;6.40;99.90
51837;DHT22;38941;53.254;6.600;2023-02-01T09:13:48;6.40;99.90
51837;DHT22;38941;53.254;6.600;2023-02-01T09:15:51;7.40;99.90
51837;DHT22;38941;53.254;6.600;2023-02-01T09:17:51;6.40;99.90
51837;DHT22;38941;53.254;6.600;2023-02-01T09:19:52;6.50;99.90
51837;DHT22;38941;53.254;6.600;2023-02-01T09:21:53;6.50;99.90
51837;DHT22;38941;53.254;6.600;2023-02-01T09:23:54;6.50;99.90
51837;DHT22;38941;53.254;6.600;2023-02-01T09:25:59;6.50;99.90
51837;DHT22;38941;53.254;6.600;2023-02-01T09:28:00;5.80;99.90
51837;DHT22;38941;53.254;6.600;2023-02-01T09:30:01;6.50;99.90
51837;DHT22;38941;53.254;6.600;2023-02-01T09:32:02;6.50;99.90
51837;DHT22;38941;53.254;6.600;2023-02-01T09:34:03;6.50;99.90
51837;DHT22;38941;53.254;6.600;2023-02-01T09:36:04;6.50;99.90
51837;DHT22;38941;53.254;6.600;2023-02-01T09:38:06;6.50;99.90
51837;DHT22;38941;53.254;6.600;2023-02-01T09:40:12;6.50;99.90
51837;DHT22;38941;53.254;6.600;2023-02-01T09:42:21;6.60;99.90
51837;DHT22;38941;53.254;6.600;2023-02-01T09:44:48;6.50;99.90
51837;DHT22;38941;53.254;6.600;2023-02-01T09:46:55;6.60;99.90
51837;DHT22;38941;53.254;6.600;2023-02-01T09:49:01;6.50;99.90
51837;DHT22;38941;53.254;6.600;2023-02-01T09:51:10;6.50;99.90
51837;DHT22;38941;53.254;6.600;2023-02-01T09:53:35;6.50;99.90
51837;DHT22;38941;53.254;6.600;2023-02-01T09:55:43;6.40;99.90
51837;DHT22;38941;53.254;6.600;2023-02-01T09:58:02;6.50;99.90
51837;DHT22;38941;53.254;6.600;2023-02-01T10:00:17;6.40;99.90
51837;DHT22;38941;53.254;6.600;2023-02-01T10:02:26;6.40;99.90
51837;DHT22;38941;53.254;6.600;2023-02-01T10:04:27;6.40;99.90
51837;DHT22;38941;53.254;6.600;2023-02-01T10:11:34;6.30;99.90
51837;DHT22;38941;53.254;6.600;2023-02-01T10:14:02;6.20;99.90
51837;DHT22;38941;53.254;6.600;2023-02-01T10:22:39;6.10;99.90
51837;DHT22;38941;53.254;6.600;2023-02-01T10:24:50;6.00;99.90
51837;DHT22;38941;53.254;6.600;2023-02-01T10:29:15;6.00;99.90
51837;DHT22;38941;53.254;6.600;2023-02-01T10:31:18;6.30;99.90
51837;DHT22;38941;53.254;6.600;2023-02-01T10:33:27;6.10;99.90
51837;DHT22;38941;53.254;6.600;2023-02-01T10:35:34;6.10;99.90
51837;DHT22;38941;53.254;6.600;2023-02-01T10:37:37;6.10;99.90
51837;DHT22;38941;53.254;6.600;2023-02-01T10:39:37;6.10;99.90
51837;DHT22;38941;53.254;6.600;2023-02-01T10:41:39;6.10;99.90
51837;DHT22;38941;53.254;6.600;2023-02-01T10:43:41;6.40;99.90
51837;DHT22;38941;53.254;6.600;2023-02-01T10:45:43;6.20;99.90
51837;DHT22;38941;53.254;6.600;2023-02-01T10:47:48;6.20;99.90
51837;DHT22;38941;53.254;6.600;2023-02-01T10:54:19;6.50;99.90
51837;DHT22;38941;53.254;6.600;2023-02-01T10:56:26;6.50;99.90
51837;DHT22;38941;53.254;6.600;2023-02-01T10:58:30;7.00;99.90
51837;DHT22;38941;53.254;6.600;2023-02-01T11:02:49;6.80;99.90
51837;DHT22;38941;53.254;6.600;2023-02-01T11:04:50;6.90;99.90
51837;DHT22;38941;53.254;6.600;2023-02-01T11:07:16;7.10;99.90
51837;DHT22;38941;53.254;6.600;2023-02-01T11:09:24;7.20;99.90
51837;DHT22;38941;53.254;6.600;2023-02-01T11:11:26;7.20;99.90
51837;DHT22;38941;53.254;6.600;2023-02-01T11:13:31;7.20;99.90
51837;DHT22;38941;53.254;6.600;2023-02-01T11:15:34;7.20;99.90
51837;DHT22;38941;53.254;6.600;2023-02-01T11:17:43;7.10;99.90
51837;DHT22;38941;53.254;6.600;2023-02-01T11:19:44;7.00;99.90
51837;DHT22;38941;53.254;6.600;2023-02-01T11:21:55;7.20;99.90
51837;DHT22;38941;53.254;6.600;2023-02-01T11:24:02;6.80;99.90
51837;DHT22;38941;53.254;6.600;2023-02-01T11:26:15;6.80;99.90
51837;DHT22;38941;53.254;6.600;2023-02-01T11:28:22;6.70;99.90
51837;DHT22;38941;53.254;6.600;2023-02-01T11:30:36;6.60;99.90
51837;DHT22;38941;53.254;6.600;2023-02-01T11:32:39;6.30;99.90
51837;DHT22;38941;53.254;6.600;2023-02-01T11:34:51;6.00;99.90
51837;DHT22;38941;53.254;6.600;2023-02-01T11:36:57;5.70;99.90
51837;DHT22;38941;53.254;6.600;2023-02-01T11:39:17;5.40;99.90
51837;DHT22;38941;53.254;6.600;2023-02-01T11:41:27;5.10;99.90
51837;DHT22;38941;53.254;6.600;2023-02-01T11:43:30;4.90;99.90
51837;DHT22;38941;53.254;6.600;2023-02-01T11:45:32;4.80;99.90
51837;DHT22;38941;53.254;6.600;2023-02-01T11:47:41;4.60;99.90
51837;DHT22;38941;53.254;6.600;2023-02-01T11:49:42;5.40;99.90
51837;DHT22;38941;53.254;6.600;2023-02-01T11:52:16;4.90;99.90
51837;DHT22;38941;53.254;6.600;2023-02-01T12:01:29;4.00;99.90
51837;DHT22;38941;53.254;6.600;2023-02-01T12:08:30;4.10;99.90
51837;DHT22;38941;53.254;6.600;2023-02-01T12:20:55;4.50;99.90
51837;DHT22;38941;53.254;6.600;2023-02-01T12:23:16;4.60;99.90
51837;DHT22;38941;53.254;6.600;2023-02-01T12:28:05;4.80;99.90
51837;DHT22;38941;53.254;6.600;2023-02-01T12:32:25;5.20;99.90
51837;DHT22;38941;53.254;6.600;2023-02-01T12:37:25;5.50;99.90
51837;DHT22;38941;53.254;6.600;2023-02-01T12:39:40;5.70;99.90
51837;DHT22;38941;53.254;6.600;2023-02-01T12:44:00;6.20;99.90
51837;DHT22;38941;53.254;6.600;2023-02-01T12:46:08;6.50;99.90
51837;DHT22;38941;53.254;6.600;2023-02-01T12:48:32;6.80;99.90
51837;DHT22;38941;53.254;6.600;2023-02-01T12:50:42;7.00;99.90
51837;DHT22;38941;53.254;6.600;2023-02-01T12:52:48;7.00;99.90
51837;DHT22;38941;53.254;6.600;2023-02-01T12:55:00;7.10;99.90
51837;DHT22;38941;53.254;6.600;2023-02-01T12:57:05;7.20;99.90
51837;DHT22;38941;53.254;6.600;2023-02-01T12:59:36;7.30;99.90
51837;DHT22;38941;53.254;6.600;2023-02-01T13:01:42;7.50;99.90
51837;DHT22;38941;53.254;6.600;2023-02-01T13:04:09;7.50;99.90
51837;DHT22;38941;53.254;6.600;2023-02-01T13:06:24;7.50;99.90
51837;DHT22;38941;53.254;6.600;2023-02-01T13:08:40;7.50;99.90
51837;DHT22;38941;53.254;6.600;2023-02-01T13:10:47;7.50;99.90
51837;DHT22;38941;53.254;6.600;2023-02-01T13:15:29;7.50;99.90
51837;DHT22;38941;53.254;6.600;2023-02-01T13:17:32;7.50;99.90
51837;DHT22;38941;53.254;6.600;2023-02-01T13:19:49;7.50;99.90
51837;DHT22;38941;53.254;6.600;2023-02-01T13:22:02;7.50;99.90
51837;DHT22;38941;53.254;6.600;2023-02-01T13:24:45;7.60;99.90
51837;DHT22;38941;53.254;6.600;2023-02-01T13:26:47;7.60;99.90
51837;DHT22;38941;53.254;6.600;2023-02-01T13:28:49;7.70;99.90
51837;DHT22;38941;53.254;6.600;2023-02-01T13:33:29;7.60;99.90
51837;DHT22;38941;53.254;6.600;2023-02-01T13:42:25;7.60;99.90
51837;DHT22;38941;53.254;6.600;2023-02-01T13:46:40;7.60;99.90
51837;DHT22;38941;53.254;6.600;2023-02-01T13:48:57;7.60;99.90
51837;DHT22;38941;53.254;6.600;2023-02-01T13:50:59;7.60;99.90
51837;DHT22;38941;53.254;6.600;2023-02-01T13:55:24;7.70;99.90
51837;DHT22;38941;53.254;6.600;2023-02-01T13:57:37;7.70;99.90
51837;DHT22;38941;53.254;6.600;2023-02-01T14:01:39;7.50;99.90
51837;DHT22;38941;53.254;6.600;2023-02-01T14:03:45;7.60;99.90
51837;DHT22;38941;53.254;6.600;2023-02-01T14:12:47;7.50;99.90
51837;DHT22;38941;53.254;6.600;2023-02-01T14:14:49;7.50;99.90
51837;DHT22;38941;53.254;6.600;2023-02-01T14:18:59;7.60;99.90
51837;DHT22;38941;53.254;6.600;2023-02-01T14:23:20;7.60;99.90
51837;DHT22;38941;53.254;6.600;2023-02-01T14:25:21;7.60;99.90
51837;DHT22;38941;53.254;6.600;2023-02-01T14:27:29;7.60;99.90
51837;DHT22;38941;53.254;6.600;2023-02-01T14:29:39;7.60;99.90
51837;DHT22;38941;53.254;6.600;2023-02-01T14:33:47;7.60;99.90
51837;DHT22;38941;53.254;6.600;2023-02-01T14:36:07;7.70;99.90
51837;DHT22;38941;53.254;6.600;2023-02-01T14:38:09;7.70;99.90
51837;DHT22;38941;53.254;6.600;2023-02-01T14:40:16;7.70;99.90
51837;DHT22;38941;53.254;6.600;2023-02-01T14:42:27;7.70;99.90
51837;DHT22;38941;53.254;6.600;2023-02-01T14:44:31;7.80;99.90
51837;DHT22;38941;53.254;6.600;2023-02-01T14:47:08;7.80;99.90
51837;DHT22;38941;53.254;6.600;2023-02-01T14:49:10;8.00;99.90
51837;DHT22;38941;53.254;6.600;2023-02-01T14:51:14;8.00;99.90
51837;DHT22;38941;53.254;6.600;2023-02-01T14:53:33;8.10;99.90
51837;DHT22;38941;53.254;6.600;2023-02-01T14:57:49;8.40;99.90
51837;DHT22;38941;53.254;6.600;2023-02-01T14:59:59;8.40;99.90
51837;DHT22;38941;53.254;6.600;2023-02-01T15:02:00;8.30;99.90
51837;DHT22;38941;53.254;6.600;2023-02-01T15:04:11;8.10;99.90
51837;DHT22;38941;53.254;6.600;2023-02-01T15:08:54;7.80;99.90
51837;DHT22;38941;53.254;6.600;2023-02-01T15:10:57;7.60;99.90